Time;durP1;ratioP1;P1;durP2;ratioP2;P2;SDS_P1;SDS_P2;PMS_P1;PMS_P2;Temp;Humidity;BMP_temperature;BMP_pressure;BME280_temperature;BME280_humidity;BME280_pressure;Samples;Min_cycle;Max_cycle;Signal;HPM_P1;HPM_P2
2022/01/14 00:00:51;;;;;;;12.80;8.18;;;3.50;99.90;;;;;;4147943;28;20405;-63
2022/01/14 00:02:52;;;;;;;13.20;8.25;;;3.50;99.90;;;;;;4148634;28;20140;-63
2022/01/14 00:04:52;;;;;;;12.32;7.95;;;3.50;99.90;;;;;;4148866;28;20064;-63
2022/01/14 00:06:53;;;;;;;13.05;8.00;;;3.50;99.90;;;;;;4148212;28;20433;-63
2022/01/14 00:09:01;;;;;;;16.20;8.95;;;3.50;99.90;;;;;;4148603;28;20034;-63
2022/01/14 00:11:03;;;;;;;13.32;7.80;;;3.50;99.90;;;;;;4147877;28;20069;-63
2022/01/14 00:13:16;;;;;;;11.90;7.78;;;3.50;99.90;;;;;;4149045;28;20111;-63
2022/01/14 00:15:24;;;;;;;12.93;8.18;;;3.60;99.90;;;;;;4147754;28;20133;-63
2022/01/14 00:17:26;;;;;;;12.77;8.20;;;3.60;99.90;;;;;;4148653;28;20125;-63
2022/01/14 00:19:26;;;;;;;11.77;7.75;;;3.60;99.90;;;;;;4148654;28;20030;-63
2022/01/14 00:21:28;;;;;;;13.30;8.65;;;3.60;99.90;;;;;;4148106;28;20042;-62
2022/01/14 00:23:34;;;;;;;11.38;6.97;;;3.60;99.90;;;;;;4148504;28;20038;-63
2022/01/14 00:33:05;;;;;;;12.43;7.70;;;3.50;99.90;;;;;;4145026;28;20076;-63
2022/01/14 00:34:54;;;;;;;11.93;7.80;;;3.50;99.90;;;;;;4147881;28;20100;-63
2022/01/14 00:36:55;;;;;;;11.48;7.10;;;3.50;99.90;;;;;;4147957;28;20029;-63
2022/01/14 00:38:56;;;;;;;13.50;8.13;;;3.60;99.90;;;;;;4148527;28;20037;-63
2022/01/14 00:40:56;;;;;;;16.05;9.77;;;3.60;99.90;;;;;;4151111;28;20183;-63
2022/01/14 00:42:57;;;;;;;13.30;8.57;;;3.50;99.90;;;;;;4148280;28;20038;-63
2022/01/14 00:44:57;;;;;;;12.70;8.18;;;3.50;99.90;;;;;;4151975;28;20507;-63
2022/01/14 00:47:01;;;;;;;11.23;7.63;;;3.50;99.90;;;;;;4147472;28;20038;-63
2022/01/14 00:49:01;;;;;;;11.45;7.68;;;3.60;99.90;;;;;;4148259;28;20578;-63
2022/01/14 00:51:02;;;;;;;13.98;8.70;;;3.60;99.90;;;;;;4139492;28;20116;-63
2022/01/14 00:53:03;;;;;;;11.77;7.55;;;3.60;99.90;;;;;;4148419;28;20046;-63
2022/01/14 00:55:05;;;;;;;10.45;7.03;;;3.60;99.90;;;;;;4150973;28;20464;-64
2022/01/14 00:59:14;;;;;;;11.73;7.55;;;3.60;99.90;;;;;;4164481;28;20048;-63
2022/01/14 01:01:14;;;;;;;12.13;7.57;;;3.70;99.90;;;;;;4163241;28;20374;-63
2022/01/14 01:03:15;;;;;;;12.90;8.60;;;3.60;99.90;;;;;;4163849;28;20076;-63
2022/01/14 01:05:17;;;;;;;11.48;7.88;;;3.60;99.90;;;;;;4154710;28;20373;-63
2022/01/14 01:07:19;;;;;;;10.25;6.97;;;3.60;99.90;;;;;;4164329;28;20037;-63
2022/01/14 01:09:23;;;;;;;11.00;7.32;;;3.60;99.90;;;;;;4164363;28;20464;-63
2022/01/14 01:11:25;;;;;;;10.05;7.30;;;3.70;99.90;;;;;;4163586;28;20124;-63
2022/01/14 01:13:36;;;;;;;12.50;8.23;;;3.70;99.90;;;;;;4164301;28;20091;-63
2022/01/14 01:15:37;;;;;;;13.65;7.28;;;3.70;99.90;;;;;;4154620;28;20117;-63
2022/01/14 01:17:38;;;;;;;10.60;7.00;;;3.70;99.90;;;;;;4152303;28;20033;-63
2022/01/14 01:19:40;;;;;;;12.25;8.10;;;3.70;99.90;;;;;;4147889;28;20464;-63
2022/01/14 01:21:41;;;;;;;12.07;8.15;;;3.70;99.90;;;;;;4159353;28;20034;-63
2022/01/14 01:23:41;;;;;;;11.70;7.75;;;3.70;99.90;;;;;;4164264;28;20083;-69
2022/01/14 01:25:51;;;;;;;11.18;7.85;;;3.80;99.90;;;;;;4163220;28;20498;-64
2022/01/14 01:27:54;;;;;;;12.70;8.52;;;3.80;99.90;;;;;;4162286;28;20037;-63
2022/01/14 01:30:11;;;;;;;14.00;8.40;;;3.80;99.90;;;;;;4164003;28;20033;-63
2022/01/14 01:32:12;;;;;;;11.02;7.32;;;3.80;99.90;;;;;;4147444;28;20045;-65
2022/01/14 01:34:22;;;;;;;9.02;6.72;;;3.80;99.90;;;;;;4147748;28;20037;-64
2022/01/14 01:36:22;;;;;;;11.48;7.47;;;3.80;99.90;;;;;;4156222;28;20099;-63
2022/01/14 01:38:23;;;;;;;10.35;7.38;;;3.80;99.90;;;;;;4163955;28;20034;-63
2022/01/14 01:40:26;;;;;;;11.48;7.70;;;3.90;99.90;;;;;;4162967;28;20037;-63
2022/01/14 01:42:29;;;;;;;12.55;8.18;;;3.80;99.90;;;;;;4163776;28;20049;-63
2022/01/14 01:44:31;;;;;;;11.40;7.47;;;3.80;99.90;;;;;;4164026;28;20049;-63
2022/01/14 01:46:33;;;;;;;11.40;7.35;;;3.80;99.90;;;;;;4163096;28;20046;-63
2022/01/14 01:48:33;;;;;;;11.27;7.43;;;3.80;99.90;;;;;;4163685;28;20030;-63
2022/01/14 01:50:36;;;;;;;10.55;6.47;;;3.80;99.90;;;;;;4163130;28;20407;-63
2022/01/14 01:52:37;;;;;;;11.13;7.22;;;3.80;99.90;;;;;;4147663;28;20131;-63
2022/01/14 01:54:38;;;;;;;11.10;6.93;;;3.90;99.90;;;;;;4147760;28;20034;-63
2022/01/14 01:56:38;;;;;;;12.07;7.95;;;3.90;99.90;;;;;;4162973;28;20039;-63
2022/01/14 01:58:39;;;;;;;11.80;7.25;;;3.80;99.90;;;;;;4163668;28;20484;-63
2022/01/14 02:00:40;;;;;;;13.30;7.93;;;3.80;99.90;;;;;;4163230;28;20087;-63
2022/01/14 02:02:41;;;;;;;12.80;8.32;;;3.80;99.90;;;;;;4163740;28;20127;-63
2022/01/14 02:04:41;;;;;;;12.05;7.70;;;3.80;99.90;;;;;;4163896;28;20056;-63
2022/01/14 02:06:43;;;;;;;12.98;7.53;;;3.80;99.90;;;;;;4162568;28;20065;-64
2022/01/14 02:08:44;;;;;;;12.68;8.18;;;3.80;99.90;;;;;;4163775;28;20045;-63
2022/01/14 02:10:44;;;;;;;12.55;8.48;;;3.80;99.90;;;;;;4162981;28;20041;-63
2022/01/14 02:12:53;;;;;;;10.63;7.20;;;3.80;99.90;;;;;;4163499;28;20132;-63
2022/01/14 02:17:17;;;;;;;11.48;7.90;;;3.90;99.90;;;;;;4166168;28;20038;-63
2022/01/14 02:19:24;;;;;;;28.35;9.45;;;3.90;99.90;;;;;;4167022;28;20049;-63
2022/01/14 02:23:51;;;;;;;12.98;8.30;;;3.90;99.90;;;;;;4159977;28;20050;-63
2022/01/14 02:25:52;;;;;;;12.15;8.15;;;3.90;99.90;;;;;;4165744;28;20037;-63
2022/01/14 02:27:52;;;;;;;12.43;8.02;;;3.90;99.90;;;;;;4166781;28;20052;-63
2022/01/14 02:29:53;;;;;;;14.30;8.40;;;3.90;99.90;;;;;;4166896;28;20038;-63
2022/01/14 02:31:54;;;;;;;11.85;7.95;;;3.90;99.90;;;;;;4166033;28;20041;-63
2022/01/14 02:33:54;;;;;;;13.20;8.25;;;3.90;99.90;;;;;;4166306;28;20037;-63
2022/01/14 02:35:55;;;;;;;13.00;8.40;;;4.00;99.90;;;;;;4165874;28;20038;-63
2022/01/14 02:37:56;;;;;;;12.40;7.75;;;4.00;99.90;;;;;;4166650;28;20037;-63
2022/01/14 02:39:56;;;;;;;13.20;7.82;;;4.00;99.90;;;;;;4166570;28;20061;-63
2022/01/14 02:41:57;;;;;;;11.80;8.38;;;4.00;99.90;;;;;;4165750;28;20476;-63
2022/01/14 02:44:07;;;;;;;12.68;7.93;;;4.00;99.90;;;;;;4166361;28;20041;-63
2022/01/14 02:46:08;;;;;;;12.77;8.02;;;4.10;99.90;;;;;;4165943;28;20109;-63
2022/01/14 02:48:09;;;;;;;15.00;8.48;;;4.10;99.90;;;;;;4166538;28;20033;-63
2022/01/14 02:50:15;;;;;;;13.57;8.45;;;4.10;99.90;;;;;;4165821;28;20034;-65
2022/01/14 02:52:16;;;;;;;15.30;9.45;;;4.10;99.90;;;;;;4164797;28;20450;-63
2022/01/14 02:54:21;;;;;;;12.20;7.63;;;4.10;99.90;;;;;;4166413;28;20168;-63
2022/01/14 02:56:29;;;;;;;15.40;8.38;;;4.10;99.90;;;;;;4164598;28;20559;-63
2022/01/14 02:58:31;;;;;;;13.30;8.38;;;4.10;99.90;;;;;;4166533;28;20487;-63
2022/01/14 03:00:32;;;;;;;14.23;8.57;;;4.10;99.90;;;;;;4165284;28;20056;-63
2022/01/14 03:02:35;;;;;;;11.98;7.80;;;4.00;99.90;;;;;;4166059;28;20086;-63
2022/01/14 03:04:39;;;;;;;13.82;8.23;;;4.00;99.90;;;;;;4166130;28;20045;-63
2022/01/14 03:06:40;;;;;;;13.38;8.13;;;4.00;99.90;;;;;;4165513;28;20042;-63
2022/01/14 03:08:42;;;;;;;12.57;7.93;;;4.00;99.90;;;;;;4165803;28;20029;-63
2022/01/14 03:10:45;;;;;;;11.80;7.43;;;4.00;99.90;;;;;;4164024;28;20068;-66
2022/01/14 03:12:47;;;;;;;11.63;7.47;;;4.00;99.90;;;;;;4165809;28;20044;-63
2022/01/14 03:14:47;;;;;;;13.18;8.27;;;4.00;99.90;;;;;;4166260;28;20377;-63
2022/01/14 03:16:50;;;;;;;14.48;8.82;;;3.90;99.90;;;;;;4165500;28;20043;-63
2022/01/14 03:18:53;;;;;;;16.02;9.20;;;3.90;99.90;;;;;;4166084;28;20443;-63
2022/01/14 03:21:06;;;;;;;13.93;8.27;;;3.80;99.90;;;;;;4165334;28;20029;-63
2022/01/14 03:23:08;;;;;;;13.13;8.23;;;3.80;99.90;;;;;;4164459;28;20121;-63
2022/01/14 03:27:28;;;;;;;14.77;9.65;;;3.90;99.90;;;;;;4164651;28;20389;-63
2022/01/14 03:29:29;;;;;;;13.68;8.25;;;3.80;99.90;;;;;;4166007;28;20072;-63
2022/01/14 03:31:30;;;;;;;13.50;8.70;;;3.80;99.90;;;;;;4165357;28;20046;-63
2022/01/14 03:33:30;;;;;;;13.40;8.18;;;3.80;99.90;;;;;;4165736;28;20041;-63
2022/01/14 03:35:31;;;;;;;14.07;8.88;;;3.80;99.90;;;;;;4165083;28;20053;-63
2022/01/14 03:37:32;;;;;;;15.07;8.25;;;3.80;99.90;;;;;;4164251;28;20061;-63
2022/01/14 03:39:32;;;;;;;13.85;8.98;;;3.80;99.90;;;;;;4165497;28;20050;-63
2022/01/14 03:41:33;;;;;;;13.27;8.18;;;3.80;99.90;;;;;;4164892;28;20060;-63
2022/01/14 03:43:35;;;;;;;13.45;8.70;;;3.80;99.90;;;;;;4165804;28;20088;-63
2022/01/14 03:45:38;;;;;;;15.50;8.88;;;3.80;99.90;;;;;;4165177;28;20439;-63
2022/01/14 03:47:39;;;;;;;15.48;8.88;;;3.80;99.90;;;;;;4165792;28;20033;-63
2022/01/14 03:49:39;;;;;;;12.68;8.90;;;3.90;99.90;;;;;;4162192;28;21029;-63
2022/01/14 03:51:41;;;;;;;14.48;9.43;;;3.90;99.90;;;;;;4148460;28;20034;-63
2022/01/14 03:53:42;;;;;;;12.77;8.35;;;3.90;99.90;;;;;;4150908;28;20484;-63
2022/01/14 03:55:44;;;;;;;13.90;8.85;;;3.80;99.90;;;;;;4164397;28;20041;-65
2022/01/14 03:57:44;;;;;;;14.13;7.85;;;3.80;99.90;;;;;;4165674;28;20092;-63
2022/01/14 03:59:45;;;;;;;14.10;8.65;;;3.80;99.90;;;;;;4165381;28;20111;-63
2022/01/14 04:01:46;;;;;;;14.82;8.23;;;3.80;99.90;;;;;;4164617;28;20392;-63
2022/01/14 04:03:48;;;;;;;20.58;9.48;;;3.80;99.90;;;;;;4164805;28;20535;-63
2022/01/14 04:05:48;;;;;;;14.48;8.85;;;3.80;99.90;;;;;;4164718;28;20038;-63
2022/01/14 04:07:49;;;;;;;14.65;8.95;;;3.80;99.90;;;;;;4165465;28;20060;-63
2022/01/14 04:09:49;;;;;;;15.68;9.70;;;3.80;99.90;;;;;;4165360;28;20404;-63
2022/01/14 04:11:50;;;;;;;14.30;8.70;;;3.80;99.90;;;;;;4164437;28;20037;-63
2022/01/14 04:13:54;;;;;;;12.93;8.57;;;3.80;99.90;;;;;;4164996;28;20076;-63
2022/01/14 04:15:54;;;;;;;13.10;8.15;;;3.80;99.90;;;;;;4164592;28;20026;-63
2022/01/14 04:17:55;;;;;;;14.75;9.38;;;3.90;99.90;;;;;;4165267;28;20057;-63
2022/01/14 04:19:56;;;;;;;13.65;8.65;;;3.90;99.90;;;;;;4165063;28;20052;-63
2022/01/14 04:21:56;;;;;;;14.23;8.38;;;3.80;99.90;;;;;;4164439;28;20038;-63
2022/01/14 04:23:57;;;;;;;12.05;7.53;;;3.80;99.90;;;;;;4163491;28;20120;-63
2022/01/14 04:25:58;;;;;;;13.02;7.50;;;3.80;99.90;;;;;;4150106;28;20467;-63
2022/01/14 04:27:58;;;;;;;11.55;7.40;;;3.90;99.90;;;;;;4152799;28;20048;-63
2022/01/14 04:29:59;;;;;;;10.90;7.50;;;3.90;99.90;;;;;;4164792;28;20041;-63
2022/01/14 04:32:00;;;;;;;11.90;7.65;;;3.90;99.90;;;;;;4164286;28;20499;-63
2022/01/14 04:34:00;;;;;;;13.45;8.23;;;3.90;99.90;;;;;;4164832;28;20484;-63
2022/01/14 04:36:03;;;;;;;13.55;8.93;;;4.00;99.90;;;;;;4164142;28;20038;-63
2022/01/14 04:38:04;;;;;;;16.35;9.52;;;3.90;99.90;;;;;;4164544;28;20053;-63
2022/01/14 04:40:05;;;;;;;13.35;8.80;;;3.90;99.90;;;;;;4160893;28;20041;-63
2022/01/14 04:42:06;;;;;;;12.32;8.82;;;3.90;99.90;;;;;;4148139;28;20046;-63
2022/01/14 04:44:07;;;;;;;12.27;7.68;;;3.90;99.90;;;;;;4152403;28;20045;-63
2022/01/14 04:48:11;;;;;;;13.05;8.77;;;3.90;99.90;;;;;;4156058;28;20048;-63
2022/01/14 04:50:14;;;;;;;12.30;7.72;;;3.80;99.90;;;;;;4155290;28;20436;-64
2022/01/14 04:52:15;;;;;;;10.55;6.88;;;3.80;99.90;;;;;;4162156;28;20036;-63
2022/01/14 04:54:15;;;;;;;13.13;8.55;;;3.80;99.90;;;;;;4162425;28;20034;-63
2022/01/14 04:56:16;;;;;;;10.15;6.63;;;3.80;99.90;;;;;;4162231;28;20034;-63
2022/01/14 04:58:17;;;;;;;11.77;7.68;;;3.80;99.90;;;;;;4161974;28;20068;-62
2022/01/14 05:00:21;;;;;;;10.02;6.65;;;3.80;99.90;;;;;;4154407;28;20088;-62
2022/01/14 05:02:22;;;;;;;9.13;5.90;;;3.80;99.90;;;;;;4159399;28;20033;-62
2022/01/14 05:04:23;;;;;;;11.25;6.80;;;3.80;99.90;;;;;;4162146;28;20049;-61
2022/01/14 05:06:24;;;;;;;11.25;6.97;;;3.80;99.90;;;;;;4161311;28;20029;-60
2022/01/14 05:08:34;;;;;;;9.57;6.22;;;3.80;99.90;;;;;;4156355;28;20033;-62
2022/01/14 05:10:47;;;;;;;10.13;6.25;;;3.80;99.90;;;;;;4158408;28;20404;-62
2022/01/14 05:12:48;;;;;;;12.38;6.90;;;3.80;99.90;;;;;;4156347;28;20124;-63
2022/01/14 05:14:49;;;;;;;10.95;6.78;;;3.70;99.90;;;;;;4153642;28;20037;-63
2022/01/14 05:16:50;;;;;;;11.38;6.85;;;3.70;99.90;;;;;;4154373;28;20109;-61
2022/01/14 05:18:50;;;;;;;10.20;7.00;;;3.70;99.90;;;;;;4155850;28;20039;-61
2022/01/14 05:20:52;;;;;;;11.63;7.43;;;3.60;99.90;;;;;;4159164;28;20088;-61
2022/01/14 05:22:53;;;;;;;14.85;7.90;;;3.60;99.90;;;;;;4158451;28;20045;-62
2022/01/14 05:24:54;;;;;;;11.15;6.97;;;3.70;99.90;;;;;;4153783;28;20034;-62
2022/01/14 05:26:54;;;;;;;10.65;7.35;;;3.70;99.90;;;;;;4155535;28;20034;-62
2022/01/14 05:28:55;;;;;;;10.43;6.93;;;3.60;99.90;;;;;;4158153;28;20038;-61
2022/01/14 05:30:57;;;;;;;11.57;7.63;;;3.60;99.90;;;;;;4158604;28;20524;-62
2022/01/14 05:32:58;;;;;;;13.13;8.10;;;3.50;99.90;;;;;;4154456;28;20046;-62
2022/01/14 05:34:58;;;;;;;11.93;8.25;;;3.60;99.90;;;;;;4153783;28;20096;-62
2022/01/14 05:37:00;;;;;;;11.55;7.45;;;3.60;99.90;;;;;;4156326;28;20034;-62
2022/01/14 05:39:01;;;;;;;11.18;7.55;;;3.50;99.90;;;;;;4155992;28;20033;-62
2022/01/14 05:41:02;;;;;;;14.15;8.00;;;3.50;99.90;;;;;;4159334;28;20045;-63
2022/01/14 05:43:02;;;;;;;13.40;7.85;;;3.50;99.90;;;;;;4155519;28;20100;-63
2022/01/14 05:45:08;;;;;;;13.15;8.40;;;3.40;99.90;;;;;;4153958;28;20132;-64
2022/01/14 05:47:08;;;;;;;12.55;7.70;;;3.40;99.90;;;;;;4156423;28;20041;-63
2022/01/14 05:49:09;;;;;;;14.05;8.43;;;3.40;99.90;;;;;;4158408;28;20034;-63
2022/01/14 05:51:10;;;;;;;14.35;8.75;;;3.40;99.90;;;;;;4159442;28;20449;-63
2022/01/14 05:53:10;;;;;;;11.48;7.68;;;3.50;99.90;;;;;;4162556;28;20040;-62
2022/01/14 05:55:13;;;;;;;11.52;7.18;;;3.40;99.90;;;;;;4156943;28;20120;-64
2022/01/14 05:57:14;;;;;;;12.15;8.13;;;3.50;99.90;;;;;;4159943;28;20037;-63
2022/01/14 05:59:15;;;;;;;9.57;7.00;;;3.50;99.90;;;;;;4159643;28;20041;-63
2022/01/14 06:01:15;;;;;;;11.93;7.75;;;3.50;99.90;;;;;;4158732;28;20097;-64
2022/01/14 06:03:17;;;;;;;9.88;6.40;;;3.50;99.90;;;;;;4157710;28;20065;-64
2022/01/14 06:05:19;;;;;;;10.77;7.20;;;3.50;99.90;;;;;;4152700;28;20512;-63
2022/01/14 06:07:19;;;;;;;10.52;7.22;;;3.40;99.90;;;;;;4161423;28;20068;-63
2022/01/14 06:09:20;;;;;;;10.73;6.72;;;3.40;99.90;;;;;;4153119;28;20551;-63
2022/01/14 06:11:21;;;;;;;12.52;7.65;;;3.40;99.90;;;;;;4157544;28;20060;-63
2022/01/14 06:13:21;;;;;;;13.82;8.63;;;3.40;99.90;;;;;;4160670;28;20041;-62
2022/01/14 06:15:22;;;;;;;11.20;7.00;;;3.50;99.90;;;;;;4156450;28;20042;-63
2022/01/14 06:17:23;;;;;;;13.20;7.80;;;3.50;99.90;;;;;;4159509;28;20066;-64
2022/01/14 06:19:27;;;;;;;15.32;8.45;;;3.50;99.90;;;;;;4159132;28;20096;-63
2022/01/14 06:21:27;;;;;;;14.68;8.52;;;3.50;99.90;;;;;;4158410;28;20048;-63
2022/01/14 06:23:28;;;;;;;16.23;9.73;;;3.50;99.90;;;;;;4158070;28;20065;-63
2022/01/14 06:25:29;;;;;;;14.80;9.70;;;3.60;99.90;;;;;;4159133;28;20102;-63
2022/01/14 06:27:32;;;;;;;13.98;8.93;;;3.60;99.90;;;;;;4157359;28;20036;-63
2022/01/14 06:29:33;;;;;;;14.07;8.38;;;3.60;99.90;;;;;;4157708;28;20408;-63
2022/01/14 06:31:34;;;;;;;15.25;9.35;;;3.60;99.90;;;;;;4158788;28;20046;-63
2022/01/14 06:33:35;;;;;;;14.45;9.15;;;3.60;99.90;;;;;;4159571;28;20054;-63
2022/01/14 06:35:36;;;;;;;15.27;9.35;;;3.60;99.90;;;;;;4158403;28;20490;-63
2022/01/14 06:37:37;;;;;;;11.38;7.93;;;3.50;99.90;;;;;;4161303;28;20523;-63
2022/01/14 06:39:38;;;;;;;11.07;7.68;;;3.50;99.90;;;;;;4157715;28;20060;-63
2022/01/14 06:41:39;;;;;;;16.00;8.38;;;3.50;99.90;;;;;;4159287;28;20049;-62
2022/01/14 06:43:39;;;;;;;12.57;7.70;;;3.40;99.90;;;;;;4159088;28;20483;-63
2022/01/14 06:45:40;;;;;;;13.73;7.60;;;3.40;99.90;;;;;;4157032;28;20045;-63
2022/01/14 06:47:41;;;;;;;14.18;8.30;;;3.40;99.90;;;;;;4156708;28;20064;-63
2022/01/14 06:49:41;;;;;;;11.23;7.43;;;3.40;99.90;;;;;;4157370;28;20040;-63
2022/01/14 06:51:42;;;;;;;10.52;7.25;;;3.40;99.90;;;;;;4157651;28;20038;-63
2022/01/14 06:53:42;;;;;;;11.88;7.47;;;3.40;99.90;;;;;;4154893;28;20096;-63
2022/01/14 06:55:43;;;;;;;11.73;7.60;;;3.40;99.90;;;;;;4155015;28;20140;-63
2022/01/14 06:57:44;;;;;;;9.32;6.50;;;3.40;99.90;;;;;;4160163;28;20064;-64
2022/01/14 06:59:44;;;;;;;11.52;7.25;;;3.40;99.90;;;;;;4157542;28;20046;-64
2022/01/14 07:01:45;;;;;;;11.20;7.20;;;3.40;99.90;;;;;;4159778;28;20047;-63
2022/01/14 07:03:46;;;;;;;9.90;7.00;;;3.40;99.90;;;;;;4162799;28;20080;-63
2022/01/14 07:05:46;;;;;;;9.57;6.70;;;3.40;99.90;;;;;;4162575;28;20107;-64
2022/01/14 07:07:47;;;;;;;22.13;7.82;;;3.40;99.90;;;;;;4162430;28;20037;-63
2022/01/14 07:09:57;;;;;;;12.95;8.13;;;3.40;99.90;;;;;;4158989;28;20025;-66
2022/01/14 07:12:00;;;;;;;13.75;8.50;;;3.40;99.90;;;;;;4159979;28;20141;-63
2022/01/14 07:14:00;;;;;;;12.85;7.97;;;3.50;99.90;;;;;;4161457;28;20037;-63
2022/01/14 07:16:01;;;;;;;11.48;7.75;;;3.40;99.90;;;;;;4162556;28;20459;-63
2022/01/14 07:18:02;;;;;;;14.10;8.23;;;3.30;99.90;;;;;;4162800;28;20083;-63
2022/01/14 07:20:07;;;;;;;12.50;7.25;;;3.30;99.90;;;;;;4160163;28;20088;-64
2022/01/14 07:22:08;;;;;;;11.75;7.32;;;3.30;99.90;;;;;;4162848;28;20045;-63
2022/01/14 07:24:10;;;;;;;10.68;7.75;;;3.40;99.90;;;;;;4162606;28;20538;-63
2022/01/14 07:26:10;;;;;;;11.50;7.37;;;3.30;99.90;;;;;;4160362;28;20053;-63
2022/01/14 07:28:11;;;;;;;12.80;7.88;;;3.30;99.90;;;;;;4162141;28;20053;-63
2022/01/14 07:30:14;;;;;;;12.57;7.82;;;3.30;99.90;;;;;;4158829;28;20121;-63
2022/01/14 07:32:15;;;;;;;10.32;6.53;;;3.30;99.90;;;;;;4163015;28;20072;-64
2022/01/14 07:34:16;;;;;;;12.07;8.02;;;3.20;99.90;;;;;;4162587;28;20046;-63
2022/01/14 07:36:16;;;;;;;12.52;8.45;;;3.20;99.90;;;;;;4161733;28;20033;-63
2022/01/14 07:38:17;;;;;;;12.63;8.25;;;3.20;99.90;;;;;;4160742;28;20048;-63
2022/01/14 07:40:17;;;;;;;11.88;7.85;;;3.20;99.90;;;;;;4153180;28;20534;-63
2022/01/14 07:42:18;;;;;;;13.23;8.32;;;3.20;99.90;;;;;;4160801;28;20053;-63
2022/01/14 07:44:19;;;;;;;12.68;8.50;;;3.10;99.90;;;;;;4157412;28;20053;-63
2022/01/14 07:46:20;;;;;;;13.02;8.18;;;3.10;99.90;;;;;;4156612;28;20034;-63
2022/01/14 07:48:21;;;;;;;12.68;8.18;;;3.10;99.90;;;;;;4161578;28;20042;-63
2022/01/14 07:50:22;;;;;;;12.48;7.63;;;3.10;99.90;;;;;;4159331;28;20044;-63
2022/01/14 07:52:22;;;;;;;11.80;7.85;;;3.10;99.90;;;;;;4160915;28;20063;-63
2022/01/14 07:54:24;;;;;;;13.98;8.43;;;3.00;99.90;;;;;;4161533;28;20034;-63
2022/01/14 07:56:24;;;;;;;14.68;8.52;;;3.00;99.90;;;;;;4161027;28;20033;-63
2022/01/14 07:58:26;;;;;;;13.90;8.20;;;3.00;99.90;;;;;;4160834;28;20130;-63
2022/01/14 08:00:28;;;;;;;13.70;8.23;;;3.00;99.90;;;;;;4158986;28;20096;-63
2022/01/14 08:02:28;;;;;;;11.65;7.13;;;3.00;99.90;;;;;;4162043;28;20472;-63
2022/01/14 08:04:32;;;;;;;11.32;7.53;;;3.00;99.90;;;;;;4161981;28;20042;-63
2022/01/14 08:06:37;;;;;;;12.43;7.65;;;3.00;99.90;;;;;;4161919;28;20361;-63
2022/01/14 08:08:41;;;;;;;13.57;7.55;;;3.00;99.90;;;;;;4159240;28;20045;-63
2022/01/14 08:10:41;;;;;;;11.95;7.65;;;3.00;99.90;;;;;;4160394;28;20085;-63
2022/01/14 08:12:42;;;;;;;11.13;6.90;;;3.00;99.90;;;;;;4161194;28;20041;-62
2022/01/14 08:14:43;;;;;;;13.48;8.02;;;3.00;99.90;;;;;;4161587;28;20058;-63
2022/01/14 08:16:43;;;;;;;10.55;7.47;;;3.10;99.90;;;;;;4161541;28;20084;-62
2022/01/14 08:18:44;;;;;;;11.95;7.80;;;3.10;99.90;;;;;;4160293;28;20049;-65
2022/01/14 08:20:45;;;;;;;12.07;7.78;;;3.10;99.90;;;;;;4159237;28;20068;-64
2022/01/14 08:22:46;;;;;;;13.60;8.25;;;3.10;99.90;;;;;;4161802;28;20416;-63
2022/01/14 08:24:46;;;;;;;10.77;7.22;;;3.20;99.90;;;;;;4160807;28;20485;-63
2022/01/14 08:26:47;;;;;;;11.70;8.13;;;3.20;99.90;;;;;;4161596;28;20080;-63
2022/01/14 08:28:47;;;;;;;15.95;8.95;;;3.20;99.90;;;;;;4160467;28;20060;-63
2022/01/14 08:30:48;;;;;;;10.00;6.72;;;3.00;99.90;;;;;;4158408;28;20046;-63
2022/01/14 08:32:50;;;;;;;14.65;8.02;;;3.00;99.90;;;;;;4156713;28;20045;-63
2022/01/14 08:34:50;;;;;;;12.95;8.32;;;3.10;99.90;;;;;;4161797;28;20042;-63
2022/01/14 08:36:51;;;;;;;10.85;6.95;;;3.10;99.90;;;;;;4158613;28;20061;-63
2022/01/14 08:38:52;;;;;;;20.00;9.27;;;3.10;99.90;;;;;;4158857;28;20493;-63
2022/01/14 08:40:53;;;;;;;12.05;7.30;;;3.10;99.90;;;;;;4157887;28;20550;-63
2022/01/14 08:42:55;;;;;;;11.27;7.38;;;3.20;99.90;;;;;;4161252;28;20091;-63
2022/01/14 08:44:55;;;;;;;13.68;7.50;;;3.20;99.90;;;;;;4156310;28;20046;-63
2022/01/14 08:46:56;;;;;;;11.95;7.43;;;3.20;99.90;;;;;;4159897;28;20033;-63
2022/01/14 08:48:59;;;;;;;14.98;7.50;;;3.30;99.90;;;;;;4157690;28;20033;-63
2022/01/14 08:51:00;;;;;;;12.32;8.25;;;3.20;99.90;;;;;;4157796;28;20159;-63
2022/01/14 08:53:03;;;;;;;12.80;8.18;;;3.20;99.90;;;;;;4158006;28;20095;-63
2022/01/14 08:55:05;;;;;;;12.52;7.47;;;3.30;99.90;;;;;;4158626;28;20045;-63
2022/01/14 08:57:05;;;;;;;13.25;8.55;;;3.30;99.90;;;;;;4160914;28;20056;-63
2022/01/14 08:59:06;;;;;;;12.20;7.93;;;3.30;99.90;;;;;;4160521;28;20045;-63
2022/01/14 09:01:07;;;;;;;12.38;7.35;;;3.30;99.90;;;;;;4161407;28;20037;-63
2022/01/14 09:03:07;;;;;;;13.88;8.30;;;3.30;99.90;;;;;;4161759;28;20132;-63
2022/01/14 09:05:09;;;;;;;12.88;7.95;;;3.40;99.90;;;;;;4161724;28;20052;-64
2022/01/14 09:07:09;;;;;;;66.13;21.92;;;3.40;99.90;;;;;;4162096;28;20550;-63
2022/01/14 09:09:10;;;;;;;29.98;13.63;;;3.40;99.90;;;;;;4161242;28;20041;-63
2022/01/14 09:11:10;;;;;;;18.00;9.57;;;3.40;99.90;;;;;;4158997;28;20041;-63
2022/01/14 09:13:11;;;;;;;12.63;8.05;;;3.50;99.90;;;;;;4161674;28;20041;-63
2022/01/14 09:15:13;;;;;;;13.93;8.43;;;3.40;99.90;;;;;;4160159;28;20038;-64
2022/01/14 09:17:13;;;;;;;15.10;9.02;;;3.50;99.90;;;;;;4161278;28;20067;-63
2022/01/14 09:19:14;;;;;;;13.07;8.20;;;3.50;99.90;;;;;;4160526;28;20117;-62
2022/01/14 09:21:17;;;;;;;14.10;8.55;;;3.50;99.90;;;;;;4160618;28;20037;-66
2022/01/14 09:23:23;;;;;;;12.23;7.82;;;3.60;99.90;;;;;;4161260;28;20100;-63
2022/01/14 09:25:25;;;;;;;12.80;8.07;;;3.60;99.90;;;;;;4159974;28;20041;-63
2022/01/14 09:27:28;;;;;;;14.50;8.52;;;3.70;99.90;;;;;;4160204;28;20037;-63
2022/01/14 09:29:29;;;;;;;12.13;8.00;;;3.70;99.90;;;;;;4160915;28;20038;-63
2022/01/14 09:31:29;;;;;;;12.57;8.10;;;3.70;99.90;;;;;;4160448;28;20129;-63
2022/01/14 09:33:30;;;;;;;11.52;7.72;;;3.80;99.90;;;;;;4161941;28;20112;-63
2022/01/14 09:35:31;;;;;;;13.52;8.65;;;3.80;99.90;;;;;;4161054;28;20095;-63
2022/01/14 09:37:32;;;;;;;14.20;8.35;;;3.80;99.90;;;;;;4162399;28;20045;-63
2022/01/14 09:39:34;;;;;;;14.05;8.60;;;3.80;99.90;;;;;;4160724;28;20038;-63
2022/01/14 09:41:35;;;;;;;;;;;3.90;99.90;;;;;;4159984;28;20445;-64
2022/01/14 09:43:38;;;;;;;15.02;8.88;;;3.90;99.90;;;;;;4161302;28;20291;-63
2022/01/14 09:45:39;;;;;;;16.17;9.85;;;3.90;99.90;;;;;;4159703;28;20045;-62
2022/01/14 09:47:42;;;;;;;13.93;8.45;;;4.00;99.90;;;;;;4161575;28;20087;-63
2022/01/14 09:49:46;;;;;;;13.93;8.93;;;4.00;99.90;;;;;;4161779;28;20041;-62
2022/01/14 09:51:47;;;;;;;15.30;8.35;;;4.00;99.90;;;;;;4159490;28;20128;-63
2022/01/14 09:53:47;;;;;;;16.08;9.43;;;4.00;99.90;;;;;;4161082;28;20064;-64
2022/01/14 09:55:48;;;;;;;15.05;9.48;;;4.10;99.90;;;;;;4160203;28;20034;-63
2022/01/14 09:57:49;;;;;;;19.25;10.77;;;4.10;99.90;;;;;;4160494;28;20033;-63
2022/01/14 09:59:50;;;;;;;16.40;9.63;;;4.10;99.90;;;;;;4161466;28;20487;-63
2022/01/14 10:01:51;;;;;;;17.90;10.57;;;4.10;99.90;;;;;;4157855;28;20092;-63
2022/01/14 10:03:55;;;;;;;15.85;9.82;;;4.20;99.90;;;;;;4160787;28;20043;-63
2022/01/14 10:05:57;;;;;;;18.80;10.13;;;4.20;99.90;;;;;;4159849;28;20040;-63
2022/01/14 10:08:08;;;;;;;18.40;10.13;;;4.20;99.90;;;;;;4160212;28;20095;-63
2022/01/14 10:10:24;;;;;;;19.33;10.18;;;4.20;99.90;;;;;;4160407;28;20056;-64
2022/01/14 10:12:26;;;;;;;17.05;9.95;;;4.20;99.90;;;;;;4160495;28;20045;-63
2022/01/14 10:14:27;;;;;;;15.32;9.48;;;4.20;99.90;;;;;;4161558;28;20049;-63
2022/01/14 10:16:28;;;;;;;15.63;8.93;;;4.20;99.90;;;;;;4159002;28;20038;-63
2022/01/14 10:18:28;;;;;;;16.90;9.63;;;4.20;99.90;;;;;;4160207;28;20426;-63
2022/01/14 10:20:37;;;;;;;14.32;8.68;;;4.20;99.90;;;;;;4157445;28;20041;-63
2022/01/14 10:22:46;;;;;;;16.67;9.15;;;4.20;99.90;;;;;;4160267;28;20049;-63
2022/01/14 10:25:00;;;;;;;14.38;8.60;;;4.20;99.90;;;;;;4160889;28;20439;-63
2022/01/14 10:27:05;;;;;;;14.90;9.00;;;4.20;99.90;;;;;;4160283;28;20029;-63
2022/01/14 10:29:06;;;;;;;14.23;9.07;;;4.30;99.90;;;;;;4161319;28;20442;-63
2022/01/14 10:31:07;;;;;;;17.30;10.27;;;4.30;99.90;;;;;;4159805;28;20072;-63
2022/01/14 10:33:09;;;;;;;16.33;9.75;;;4.30;99.90;;;;;;4161144;28;20057;-63
2022/01/14 10:35:13;;;;;;;17.05;9.02;;;4.30;99.90;;;;;;4160608;28;20049;-65
2022/01/14 10:37:16;;;;;;;18.42;10.48;;;4.30;99.90;;;;;;4162738;28;20512;-63
2022/01/14 10:39:19;;;;;;;17.25;10.52;;;4.20;99.90;;;;;;4163672;28;20042;-64
2022/01/14 10:41:22;;;;;;;18.05;9.48;;;4.20;99.90;;;;;;4162733;28;20066;-63
2022/01/14 10:43:31;;;;;;;18.13;10.00;;;4.20;99.90;;;;;;4161187;28;20049;-63
2022/01/14 10:45:33;;;;;;;16.52;9.75;;;4.20;99.90;;;;;;4163049;28;20045;-63
2022/01/14 10:47:34;;;;;;;16.52;9.93;;;4.20;99.90;;;;;;4159844;28;20029;-63
2022/01/14 10:49:35;;;;;;;19.52;9.65;;;4.20;99.90;;;;;;4164297;28;20166;-63
2022/01/14 10:51:35;;;;;;;19.75;9.85;;;4.20;99.90;;;;;;4162812;28;20056;-63
2022/01/14 10:53:48;;;;;;;18.45;10.05;;;4.20;99.90;;;;;;4163313;28;20046;-63